sensor_id;sensor_type;location;lat;lon;timestamp;P1;durP1;ratioP1;P2;durP2;ratioP2
25479;SDS011;13393;49.378;8.686;2024-03-02T00:01:20;13.20;;;9.32;;
25479;SDS011;13393;49.378;8.686;2024-03-02T00:03:47;14.50;;;10.30;;
25479;SDS011;13393;49.378;8.686;2024-03-02T00:06:14;14.32;;;9.65;;
25479;SDS011;13393;49.378;8.686;2024-03-02T00:08:40;15.27;;;9.90;;
25479;SDS011;13393;49.378;8.686;2024-03-02T00:11:07;14.20;;;8.40;;
25479;SDS011;13393;49.378;8.686;2024-03-02T00:13:33;11.43;;;8.13;;
25479;SDS011;13393;49.378;8.686;2024-03-02T00:16:02;9.80;;;7.68;;
25479;SDS011;13393;49.378;8.686;2024-03-02T00:18:31;15.15;;;8.88;;
25479;SDS011;13393;49.378;8.686;2024-03-02T00:20:57;13.23;;;9.25;;
25479;SDS011;13393;49.378;8.686;2024-03-02T00:23:26;14.75;;;10.30;;
25479;SDS011;13393;49.378;8.686;2024-03-02T00:25:54;14.20;;;9.05;;
25479;SDS011;13393;49.378;8.686;2024-03-02T00:28:21;13.15;;;8.73;;
25479;SDS011;13393;49.378;8.686;2024-03-02T00:30:54;8.88;;;6.63;;
25479;SDS011;13393;49.378;8.686;2024-03-02T00:33:23;8.85;;;6.00;;
25479;SDS011;13393;49.378;8.686;2024-03-02T00:35:50;11.00;;;5.90;;
25479;SDS011;13393;49.378;8.686;2024-03-02T00:38:16;7.63;;;5.95;;
25479;SDS011;13393;49.378;8.686;2024-03-02T00:40:43;10.00;;;6.22;;
25479;SDS011;13393;49.378;8.686;2024-03-02T00:43:12;7.15;;;5.68;;
25479;SDS011;13393;49.378;8.686;2024-03-02T00:45:45;8.80;;;6.13;;
25479;SDS011;13393;49.378;8.686;2024-03-02T00:48:11;8.45;;;6.35;;
25479;SDS011;13393;49.378;8.686;2024-03-02T00:50:42;8.73;;;6.10;;
25479;SDS011;13393;49.378;8.686;2024-03-02T00:53:09;8.65;;;6.28;;
25479;SDS011;13393;49.378;8.686;2024-03-02T00:55:36;9.02;;;5.82;;
25479;SDS011;13393;49.378;8.686;2024-03-02T00:58:03;8.23;;;5.88;;
25479;SDS011;13393;49.378;8.686;2024-03-02T01:00:29;8.82;;;6.43;;
25479;SDS011;13393;49.378;8.686;2024-03-02T01:02:55;10.10;;;5.97;;
25479;SDS011;13393;49.378;8.686;2024-03-02T01:05:22;9.60;;;6.05;;
25479;SDS011;13393;49.378;8.686;2024-03-02T01:07:49;9.70;;;5.80;;
25479;SDS011;13393;49.378;8.686;2024-03-02T01:10:16;8.88;;;5.63;;
25479;SDS011;13393;49.378;8.686;2024-03-02T01:12:42;8.73;;;5.75;;
25479;SDS011;13393;49.378;8.686;2024-03-02T01:15:09;9.48;;;5.47;;
25479;SDS011;13393;49.378;8.686;2024-03-02T01:17:35;7.60;;;5.32;;
25479;SDS011;13393;49.378;8.686;2024-03-02T01:20:02;8.55;;;5.63;;
25479;SDS011;13393;49.378;8.686;2024-03-02T01:22:28;8.60;;;5.68;;
25479;SDS011;13393;49.378;8.686;2024-03-02T01:24:56;9.25;;;5.43;;
25479;SDS011;13393;49.378;8.686;2024-03-02T01:27:22;8.55;;;5.90;;
25479;SDS011;13393;49.378;8.686;2024-03-02T01:29:49;7.63;;;5.63;;
25479;SDS011;13393;49.378;8.686;2024-03-02T01:32:15;7.65;;;5.85;;
25479;SDS011;13393;49.378;8.686;2024-03-02T01:34:42;6.78;;;5.70;;
25479;SDS011;13393;49.378;8.686;2024-03-02T01:37:08;8.23;;;5.32;;
25479;SDS011;13393;49.378;8.686;2024-03-02T01:39:35;7.97;;;5.65;;
25479;SDS011;13393;49.378;8.686;2024-03-02T01:42:03;7.55;;;5.85;;
25479;SDS011;13393;49.378;8.686;2024-03-02T01:44:29;9.10;;;6.20;;
25479;SDS011;13393;49.378;8.686;2024-03-02T01:46:55;9.90;;;5.82;;
25479;SDS011;13393;49.378;8.686;2024-03-02T01:49:22;6.85;;;5.15;;
25479;SDS011;13393;49.378;8.686;2024-03-02T01:51:48;7.57;;;5.32;;
25479;SDS011;13393;49.378;8.686;2024-03-02T01:54:15;8.20;;;5.95;;
25479;SDS011;13393;49.378;8.686;2024-03-02T01:56:41;8.05;;;5.50;;
25479;SDS011;13393;49.378;8.686;2024-03-02T01:59:09;9.57;;;6.13;;
25479;SDS011;13393;49.378;8.686;2024-03-02T02:01:35;9.35;;;6.38;;
25479;SDS011;13393;49.378;8.686;2024-03-02T02:04:02;10.93;;;7.90;;
25479;SDS011;13393;49.378;8.686;2024-03-02T02:06:28;9.10;;;6.03;;
25479;SDS011;13393;49.378;8.686;2024-03-02T02:08:54;8.90;;;6.20;;
25479;SDS011;13393;49.378;8.686;2024-03-02T02:11:22;9.48;;;6.85;;
25479;SDS011;13393;49.378;8.686;2024-03-02T02:13:49;8.63;;;6.60;;
25479;SDS011;13393;49.378;8.686;2024-03-02T02:16:17;10.13;;;7.63;;
25479;SDS011;13393;49.378;8.686;2024-03-02T02:18:43;9.25;;;6.85;;
25479;SDS011;13393;49.378;8.686;2024-03-02T02:21:09;9.88;;;6.28;;
25479;SDS011;13393;49.378;8.686;2024-03-02T02:23:37;9.55;;;7.03;;
25479;SDS011;13393;49.378;8.686;2024-03-02T02:26:04;8.77;;;6.78;;
25479;SDS011;13393;49.378;8.686;2024-03-02T02:28:30;8.98;;;6.38;;
25479;SDS011;13393;49.378;8.686;2024-03-02T02:30:56;10.80;;;7.10;;
25479;SDS011;13393;49.378;8.686;2024-03-02T02:33:25;8.00;;;6.40;;
25479;SDS011;13393;49.378;8.686;2024-03-02T02:35:51;8.95;;;6.35;;
25479;SDS011;13393;49.378;8.686;2024-03-02T02:38:17;10.07;;;7.15;;
25479;SDS011;13393;49.378;8.686;2024-03-02T02:40:46;9.20;;;6.65;;
25479;SDS011;13393;49.378;8.686;2024-03-02T02:43:13;8.10;;;6.68;;
25479;SDS011;13393;49.378;8.686;2024-03-02T02:45:39;10.15;;;6.70;;
25479;SDS011;13393;49.378;8.686;2024-03-02T02:48:06;11.00;;;6.43;;
25479;SDS011;13393;49.378;8.686;2024-03-02T02:50:32;7.53;;;5.93;;
25479;SDS011;13393;49.378;8.686;2024-03-02T02:52:58;10.93;;;6.80;;
25479;SDS011;13393;49.378;8.686;2024-03-02T02:55:25;8.07;;;6.05;;
25479;SDS011;13393;49.378;8.686;2024-03-02T02:57:53;8.82;;;6.90;;
25479;SDS011;13393;49.378;8.686;2024-03-02T03:00:19;9.20;;;7.45;;
25479;SDS011;13393;49.378;8.686;2024-03-02T03:02:48;11.00;;;7.85;;
25479;SDS011;13393;49.378;8.686;2024-03-02T03:05:15;9.70;;;7.55;;
25479;SDS011;13393;49.378;8.686;2024-03-02T03:07:41;11.73;;;8.40;;
25479;SDS011;13393;49.378;8.686;2024-03-02T03:10:09;11.63;;;7.95;;
25479;SDS011;13393;49.378;8.686;2024-03-02T03:12:36;11.60;;;8.18;;
25479;SDS011;13393;49.378;8.686;2024-03-02T03:15:04;11.25;;;8.43;;
25479;SDS011;13393;49.378;8.686;2024-03-02T03:17:32;11.60;;;8.65;;
25479;SDS011;13393;49.378;8.686;2024-03-02T03:19:58;12.18;;;8.45;;
25479;SDS011;13393;49.378;8.686;2024-03-02T03:22:25;11.63;;;8.27;;
25479;SDS011;13393;49.378;8.686;2024-03-02T03:24:52;11.05;;;8.35;;
25479;SDS011;13393;49.378;8.686;2024-03-02T03:27:18;13.00;;;8.82;;
25479;SDS011;13393;49.378;8.686;2024-03-02T03:29:45;12.43;;;9.40;;
25479;SDS011;13393;49.378;8.686;2024-03-02T03:32:13;12.30;;;9.13;;
25479;SDS011;13393;49.378;8.686;2024-03-02T03:34:40;11.75;;;9.20;;
25479;SDS011;13393;49.378;8.686;2024-03-02T03:37:06;12.32;;;9.10;;
25479;SDS011;13393;49.378;8.686;2024-03-02T03:39:33;12.63;;;9.27;;
25479;SDS011;13393;49.378;8.686;2024-03-02T03:42:00;10.85;;;8.52;;
25479;SDS011;13393;49.378;8.686;2024-03-02T03:44:27;16.27;;;9.60;;
25479;SDS011;13393;49.378;8.686;2024-03-02T03:46:53;12.43;;;9.25;;
25479;SDS011;13393;49.378;8.686;2024-03-02T03:49:21;12.85;;;9.88;;
25479;SDS011;13393;49.378;8.686;2024-03-02T03:51:47;13.95;;;10.15;;
25479;SDS011;13393;49.378;8.686;2024-03-02T03:54:14;14.40;;;9.95;;
25479;SDS011;13393;49.378;8.686;2024-03-02T03:56:42;13.77;;;10.00;;
25479;SDS011;13393;49.378;8.686;2024-03-02T03:59:08;13.63;;;9.52;;
25479;SDS011;13393;49.378;8.686;2024-03-02T04:01:35;12.13;;;10.13;;
25479;SDS011;13393;49.378;8.686;2024-03-02T04:04:01;13.05;;;9.05;;
25479;SDS011;13393;49.378;8.686;2024-03-02T04:06:30;15.80;;;9.90;;
25479;SDS011;13393;49.378;8.686;2024-03-02T04:08:57;15.75;;;11.20;;
25479;SDS011;13393;49.378;8.686;2024-03-02T04:11:23;13.77;;;10.50;;
25479;SDS011;13393;49.378;8.686;2024-03-02T04:13:49;12.68;;;9.98;;
25479;SDS011;13393;49.378;8.686;2024-03-02T04:16:16;11.68;;;9.18;;
25479;SDS011;13393;49.378;8.686;2024-03-02T04:18:42;11.45;;;9.18;;
25479;SDS011;13393;49.378;8.686;2024-03-02T04:21:09;14.93;;;9.88;;
25479;SDS011;13393;49.378;8.686;2024-03-02T04:23:36;11.75;;;8.63;;
25479;SDS011;13393;49.378;8.686;2024-03-02T04:26:03;10.77;;;8.88;;
25479;SDS011;13393;49.378;8.686;2024-03-02T04:28:30;13.88;;;9.35;;
25479;SDS011;13393;49.378;8.686;2024-03-02T04:30:56;11.82;;;8.93;;
25479;SDS011;13393;49.378;8.686;2024-03-02T04:33:23;11.95;;;8.38;;
25479;SDS011;13393;49.378;8.686;2024-03-02T04:35:49;12.77;;;8.88;;
25479;SDS011;13393;49.378;8.686;2024-03-02T04:38:16;13.02;;;9.25;;
25479;SDS011;13393;49.378;8.686;2024-03-02T04:40:43;10.95;;;8.00;;
25479;SDS011;13393;49.378;8.686;2024-03-02T04:43:10;11.75;;;8.02;;
25479;SDS011;13393;49.378;8.686;2024-03-02T04:45:40;12.00;;;9.48;;
25479;SDS011;13393;49.378;8.686;2024-03-02T04:48:07;12.15;;;8.80;;
25479;SDS011;13393;49.378;8.686;2024-03-02T04:50:34;14.27;;;8.75;;
25479;SDS011;13393;49.378;8.686;2024-03-02T04:53:00;11.15;;;8.13;;
25479;SDS011;13393;49.378;8.686;2024-03-02T04:55:27;10.30;;;7.88;;
25479;SDS011;13393;49.378;8.686;2024-03-02T04:58:11;9.80;;;7.30;;
25479;SDS011;13393;49.378;8.686;2024-03-02T05:00:38;9.63;;;7.80;;
25479;SDS011;13393;49.378;8.686;2024-03-02T05:03:04;12.02;;;8.40;;
25479;SDS011;13393;49.378;8.686;2024-03-02T05:05:31;10.85;;;8.40;;
25479;SDS011;13393;49.378;8.686;2024-03-02T05:07:57;10.90;;;8.15;;
25479;SDS011;13393;49.378;8.686;2024-03-02T05:10:24;12.15;;;8.90;;
25479;SDS011;13393;49.378;8.686;2024-03-02T05:12:50;9.60;;;8.20;;
25479;SDS011;13393;49.378;8.686;2024-03-02T05:15:25;12.00;;;8.82;;
25479;SDS011;13393;49.378;8.686;2024-03-02T05:17:52;14.88;;;9.25;;
25479;SDS011;13393;49.378;8.686;2024-03-02T05:20:18;13.40;;;9.38;;
25479;SDS011;13393;49.378;8.686;2024-03-02T05:22:45;11.48;;;8.55;;
25479;SDS011;13393;49.378;8.686;2024-03-02T05:25:12;10.90;;;8.75;;
25479;SDS011;13393;49.378;8.686;2024-03-02T05:27:38;13.48;;;9.75;;
25479;SDS011;13393;49.378;8.686;2024-03-02T05:30:05;11.70;;;9.07;;
25479;SDS011;13393;49.378;8.686;2024-03-02T05:32:34;10.93;;;8.82;;
25479;SDS011;13393;49.378;8.686;2024-03-02T05:35:00;10.27;;;7.97;;
25479;SDS011;13393;49.378;8.686;2024-03-02T05:37:28;10.77;;;7.95;;
25479;SDS011;13393;49.378;8.686;2024-03-02T05:39:54;11.45;;;8.38;;
25479;SDS011;13393;49.378;8.686;2024-03-02T05:42:20;10.75;;;7.88;;
25479;SDS011;13393;49.378;8.686;2024-03-02T05:44:47;9.88;;;7.22;;
25479;SDS011;13393;49.378;8.686;2024-03-02T05:47:14;9.80;;;7.15;;
25479;SDS011;13393;49.378;8.686;2024-03-02T05:49:42;11.20;;;8.77;;
25479;SDS011;13393;49.378;8.686;2024-03-02T05:52:09;10.60;;;8.60;;
25479;SDS011;13393;49.378;8.686;2024-03-02T05:54:36;11.65;;;9.07;;
25479;SDS011;13393;49.378;8.686;2024-03-02T05:57:03;13.10;;;9.23;;
25479;SDS011;13393;49.378;8.686;2024-03-02T05:59:47;10.32;;;9.02;;
25479;SDS011;13393;49.378;8.686;2024-03-02T06:02:13;12.80;;;9.38;;
25479;SDS011;13393;49.378;8.686;2024-03-02T06:04:41;14.02;;;9.98;;
25479;SDS011;13393;49.378;8.686;2024-03-02T06:07:08;14.00;;;9.90;;
25479;SDS011;13393;49.378;8.686;2024-03-02T06:09:34;12.80;;;9.32;;
25479;SDS011;13393;49.378;8.686;2024-03-02T06:12:01;13.30;;;9.70;;
25479;SDS011;13393;49.378;8.686;2024-03-02T06:14:27;14.00;;;10.35;;
25479;SDS011;13393;49.378;8.686;2024-03-02T06:16:53;14.57;;;9.77;;
25479;SDS011;13393;49.378;8.686;2024-03-02T06:19:21;13.25;;;9.60;;
25479;SDS011;13393;49.378;8.686;2024-03-02T06:21:48;13.68;;;10.10;;
25479;SDS011;13393;49.378;8.686;2024-03-02T06:24:15;15.20;;;10.65;;
25479;SDS011;13393;49.378;8.686;2024-03-02T06:26:41;13.35;;;10.18;;
25479;SDS011;13393;49.378;8.686;2024-03-02T06:29:08;14.57;;;10.02;;
25479;SDS011;13393;49.378;8.686;2024-03-02T06:31:34;14.93;;;10.60;;
25479;SDS011;13393;49.378;8.686;2024-03-02T06:34:00;15.07;;;10.52;;
25479;SDS011;13393;49.378;8.686;2024-03-02T06:36:28;14.95;;;10.38;;
25479;SDS011;13393;49.378;8.686;2024-03-02T06:38:56;15.00;;;11.10;;
25479;SDS011;13393;49.378;8.686;2024-03-02T06:41:22;14.40;;;10.73;;
25479;SDS011;13393;49.378;8.686;2024-03-02T06:43:49;14.98;;;10.95;;
25479;SDS011;13393;49.378;8.686;2024-03-02T06:46:15;15.75;;;10.70;;
25479;SDS011;13393;49.378;8.686;2024-03-02T06:48:41;13.23;;;9.77;;
25479;SDS011;13393;49.378;8.686;2024-03-02T06:51:08;16.23;;;10.55;;
25479;SDS011;13393;49.378;8.686;2024-03-02T06:53:34;10.95;;;8.98;;
25479;SDS011;13393;49.378;8.686;2024-03-02T06:56:03;13.43;;;9.05;;
25479;SDS011;13393;49.378;8.686;2024-03-02T06:58:30;14.65;;;9.68;;
25479;SDS011;13393;49.378;8.686;2024-03-02T07:00:57;14.15;;;10.32;;
25479;SDS011;13393;49.378;8.686;2024-03-02T07:03:25;13.90;;;9.32;;
25479;SDS011;13393;49.378;8.686;2024-03-02T07:05:51;12.55;;;9.23;;
25479;SDS011;13393;49.378;8.686;2024-03-02T07:08:18;13.05;;;10.10;;
25479;SDS011;13393;49.378;8.686;2024-03-02T07:10:44;12.27;;;9.20;;
25479;SDS011;13393;49.378;8.686;2024-03-02T07:13:14;12.52;;;8.77;;
25479;SDS011;13393;49.378;8.686;2024-03-02T07:15:40;12.63;;;9.13;;
25479;SDS011;13393;49.378;8.686;2024-03-02T07:18:30;12.35;;;9.35;;
25479;SDS011;13393;49.378;8.686;2024-03-02T07:20:58;11.20;;;8.73;;
25479;SDS011;13393;49.378;8.686;2024-03-02T07:23:26;13.57;;;9.98;;
25479;SDS011;13393;49.378;8.686;2024-03-02T07:25:52;11.90;;;8.95;;
25479;SDS011;13393;49.378;8.686;2024-03-02T07:28:23;12.70;;;9.35;;
25479;SDS011;13393;49.378;8.686;2024-03-02T07:30:57;12.90;;;9.35;;
25479;SDS011;13393;49.378;8.686;2024-03-02T07:33:24;13.20;;;9.93;;
25479;SDS011;13393;49.378;8.686;2024-03-02T07:35:50;11.23;;;8.45;;
25479;SDS011;13393;49.378;8.686;2024-03-02T07:38:16;11.55;;;9.07;;
25479;SDS011;13393;49.378;8.686;2024-03-02T07:40:43;13.38;;;8.98;;
25479;SDS011;13393;49.378;8.686;2024-03-02T07:43:09;13.35;;;8.80;;
25479;SDS011;13393;49.378;8.686;2024-03-02T07:45:37;11.52;;;8.57;;
25479;SDS011;13393;49.378;8.686;2024-03-02T07:48:04;11.10;;;7.95;;
25479;SDS011;13393;49.378;8.686;2024-03-02T07:50:31;11.55;;;8.38;;
25479;SDS011;13393;49.378;8.686;2024-03-02T07:53:00;13.05;;;8.80;;
25479;SDS011;13393;49.378;8.686;2024-03-02T07:55:26;15.90;;;9.27;;
25479;SDS011;13393;49.378;8.686;2024-03-02T07:57:53;15.20;;;8.60;;
25479;SDS011;13393;49.378;8.686;2024-03-02T08:00:19;14.60;;;8.63;;
25479;SDS011;13393;49.378;8.686;2024-03-02T08:02:47;12.32;;;8.77;;
25479;SDS011;13393;49.378;8.686;2024-03-02T08:05:14;11.55;;;7.97;;
25479;SDS011;13393;49.378;8.686;2024-03-02T08:07:40;14.30;;;8.85;;
25479;SDS011;13393;49.378;8.686;2024-03-02T08:10:07;11.40;;;8.00;;
25479;SDS011;13393;49.378;8.686;2024-03-02T08:12:34;10.98;;;8.27;;
25479;SDS011;13393;49.378;8.686;2024-03-02T08:15:00;11.45;;;8.63;;
25479;SDS011;13393;49.378;8.686;2024-03-02T08:17:27;11.73;;;8.20;;
25479;SDS011;13393;49.378;8.686;2024-03-02T08:19:55;12.75;;;8.85;;
25479;SDS011;13393;49.378;8.686;2024-03-02T08:22:21;10.55;;;8.27;;
25479;SDS011;13393;49.378;8.686;2024-03-02T08:24:47;10.85;;;8.32;;
25479;SDS011;13393;49.378;8.686;2024-03-02T08:27:14;10.65;;;7.75;;
25479;SDS011;13393;49.378;8.686;2024-03-02T08:29:42;14.73;;;8.98;;
25479;SDS011;13393;49.378;8.686;2024-03-02T08:32:09;11.40;;;8.65;;
25479;SDS011;13393;49.378;8.686;2024-03-02T08:34:35;11.73;;;8.50;;
25479;SDS011;13393;49.378;8.686;2024-03-02T08:37:03;10.70;;;8.13;;
25479;SDS011;13393;49.378;8.686;2024-03-02T08:39:30;10.00;;;7.50;;
25479;SDS011;13393;49.378;8.686;2024-03-02T08:41:57;9.00;;;6.95;;
25479;SDS011;13393;49.378;8.686;2024-03-02T08:44:23;8.70;;;6.95;;
25479;SDS011;13393;49.378;8.686;2024-03-02T08:46:49;7.35;;;5.90;;
25479;SDS011;13393;49.378;8.686;2024-03-02T08:49:16;8.43;;;6.38;;
25479;SDS011;13393;49.378;8.686;2024-03-02T08:51:42;8.20;;;6.35;;
25479;SDS011;13393;49.378;8.686;2024-03-02T08:54:11;8.27;;;6.20;;
25479;SDS011;13393;49.378;8.686;2024-03-02T08:56:38;7.95;;;6.28;;
25479;SDS011;13393;49.378;8.686;2024-03-02T08:59:04;11.00;;;7.50;;
25479;SDS011;13393;49.378;8.686;2024-03-02T09:01:31;8.55;;;6.65;;
25479;SDS011;13393;49.378;8.686;2024-03-02T09:03:57;8.02;;;6.43;;
25479;SDS011;13393;49.378;8.686;2024-03-02T09:06:24;9.45;;;7.15;;
25479;SDS011;13393;49.378;8.686;2024-03-02T09:08:50;9.07;;;6.50;;
25479;SDS011;13393;49.378;8.686;2024-03-02T09:11:21;10.10;;;6.80;;
25479;SDS011;13393;49.378;8.686;2024-03-02T09:13:47;9.52;;;6.22;;
25479;SDS011;13393;49.378;8.686;2024-03-02T09:16:14;9.82;;;5.10;;
25479;SDS011;13393;49.378;8.686;2024-03-02T09:18:40;7.72;;;5.05;;
25479;SDS011;13393;49.378;8.686;2024-03-02T09:21:07;6.60;;;4.80;;
25479;SDS011;13393;49.378;8.686;2024-03-02T09:23:34;5.53;;;4.47;;
25479;SDS011;13393;49.378;8.686;2024-03-02T09:26:00;6.15;;;4.00;;
25479;SDS011;13393;49.378;8.686;2024-03-02T09:28:29;7.05;;;4.38;;
25479;SDS011;13393;49.378;8.686;2024-03-02T09:30:56;4.38;;;3.72;;
25479;SDS011;13393;49.378;8.686;2024-03-02T09:33:22;6.63;;;5.13;;
25479;SDS011;13393;49.378;8.686;2024-03-02T09:35:48;9.88;;;5.93;;
25479;SDS011;13393;49.378;8.686;2024-03-02T09:38:15;7.78;;;6.15;;
25479;SDS011;13393;49.378;8.686;2024-03-02T09:40:41;8.77;;;6.20;;
25479;SDS011;13393;49.378;8.686;2024-03-02T09:43:08;6.95;;;5.40;;
25479;SDS011;13393;49.378;8.686;2024-03-02T09:45:37;8.77;;;6.13;;
25479;SDS011;13393;49.378;8.686;2024-03-02T09:48:04;10.25;;;6.32;;
25479;SDS011;13393;49.378;8.686;2024-03-02T09:50:32;7.93;;;6.05;;
25479;SDS011;13393;49.378;8.686;2024-03-02T09:52:59;10.65;;;6.10;;
25479;SDS011;13393;49.378;8.686;2024-03-02T09:55:26;7.88;;;6.20;;
25479;SDS011;13393;49.378;8.686;2024-03-02T09:57:53;7.05;;;5.40;;
25479;SDS011;13393;49.378;8.686;2024-03-02T10:00:20;6.50;;;5.28;;
25479;SDS011;13393;49.378;8.686;2024-03-02T10:02:48;8.02;;;5.55;;
25479;SDS011;13393;49.378;8.686;2024-03-02T10:05:23;6.15;;;5.30;;
25479;SDS011;13393;49.378;8.686;2024-03-02T10:07:53;6.13;;;4.93;;
25479;SDS011;13393;49.378;8.686;2024-03-02T10:10:26;6.15;;;5.10;;
25479;SDS011;13393;49.378;8.686;2024-03-02T10:13:03;6.88;;;5.05;;
25479;SDS011;13393;49.378;8.686;2024-03-02T10:15:30;5.07;;;4.15;;
25479;SDS011;13393;49.378;8.686;2024-03-02T10:17:58;5.75;;;4.07;;
25479;SDS011;13393;49.378;8.686;2024-03-02T10:20:24;6.45;;;4.55;;
25479;SDS011;13393;49.378;8.686;2024-03-02T10:22:51;8.07;;;4.15;;
25479;SDS011;13393;49.378;8.686;2024-03-02T10:25:30;5.05;;;3.15;;
25479;SDS011;13393;49.378;8.686;2024-03-02T10:27:57;5.38;;;4.07;;
25479;SDS011;13393;49.378;8.686;2024-03-02T10:30:24;5.88;;;4.82;;
25479;SDS011;13393;49.378;8.686;2024-03-02T10:32:52;5.80;;;3.88;;
25479;SDS011;13393;49.378;8.686;2024-03-02T10:35:21;4.05;;;3.60;;
25479;SDS011;13393;49.378;8.686;2024-03-02T10:37:48;3.45;;;3.15;;
25479;SDS011;13393;49.378;8.686;2024-03-02T10:40:14;11.95;;;7.88;;
25479;SDS011;13393;49.378;8.686;2024-03-02T10:42:42;5.07;;;3.70;;
25479;SDS011;13393;49.378;8.686;2024-03-02T10:45:10;6.25;;;4.90;;
25479;SDS011;13393;49.378;8.686;2024-03-02T10:50:12;6.95;;;4.45;;
25479;SDS011;13393;49.378;8.686;2024-03-02T10:52:40;4.70;;;3.20;;
25479;SDS011;13393;49.378;8.686;2024-03-02T10:55:08;5.93;;;3.45;;
25479;SDS011;13393;49.378;8.686;2024-03-02T10:57:39;5.07;;;3.00;;
25479;SDS011;13393;49.378;8.686;2024-03-02T11:00:07;3.20;;;2.70;;
25479;SDS011;13393;49.378;8.686;2024-03-02T11:02:39;3.70;;;2.78;;
25479;SDS011;13393;49.378;8.686;2024-03-02T11:05:06;3.92;;;2.67;;
25479;SDS011;13393;49.378;8.686;2024-03-02T11:07:36;4.85;;;3.03;;
25479;SDS011;13393;49.378;8.686;2024-03-02T11:10:05;4.13;;;3.42;;
25479;SDS011;13393;49.378;8.686;2024-03-02T11:12:35;4.10;;;3.67;;
25479;SDS011;13393;49.378;8.686;2024-03-02T11:15:03;3.90;;;3.35;;
25479;SDS011;13393;49.378;8.686;2024-03-02T11:17:31;3.78;;;3.30;;
25479;SDS011;13393;49.378;8.686;2024-03-02T11:19:58;3.33;;;2.90;;
25479;SDS011;13393;49.378;8.686;2024-03-02T11:22:24;5.38;;;3.13;;
25479;SDS011;13393;49.378;8.686;2024-03-02T11:24:51;4.00;;;3.05;;
25479;SDS011;13393;49.378;8.686;2024-03-02T11:30:01;4.70;;;3.28;;
25479;SDS011;13393;49.378;8.686;2024-03-02T11:32:28;5.45;;;3.30;;
25479;SDS011;13393;49.378;8.686;2024-03-02T11:34:55;3.97;;;3.03;;
25479;SDS011;13393;49.378;8.686;2024-03-02T11:37:21;3.28;;;2.95;;
25479;SDS011;13393;49.378;8.686;2024-03-02T11:39:49;3.65;;;2.50;;
25479;SDS011;13393;49.378;8.686;2024-03-02T11:42:15;3.88;;;3.13;;
25479;SDS011;13393;49.378;8.686;2024-03-02T11:44:42;3.42;;;2.97;;
25479;SDS011;13393;49.378;8.686;2024-03-02T11:47:12;4.35;;;3.05;;
25479;SDS011;13393;49.378;8.686;2024-03-02T11:49:40;3.88;;;3.13;;
25479;SDS011;13393;49.378;8.686;2024-03-02T11:52:08;4.57;;;3.05;;
25479;SDS011;13393;49.378;8.686;2024-03-02T11:54:35;3.50;;;3.05;;
25479;SDS011;13393;49.378;8.686;2024-03-02T11:57:05;3.30;;;2.85;;
25479;SDS011;13393;49.378;8.686;2024-03-02T11:59:31;2.92;;;2.63;;
25479;SDS011;13393;49.378;8.686;2024-03-02T12:01:59;4.13;;;2.75;;
25479;SDS011;13393;49.378;8.686;2024-03-02T12:04:27;4.05;;;3.10;;
25479;SDS011;13393;49.378;8.686;2024-03-02T12:06:59;3.67;;;2.53;;
25479;SDS011;13393;49.378;8.686;2024-03-02T12:09:26;2.85;;;2.10;;
25479;SDS011;13393;49.378;8.686;2024-03-02T12:12:03;3.42;;;2.33;;
25479;SDS011;13393;49.378;8.686;2024-03-02T12:14:30;4.20;;;2.70;;
25479;SDS011;13393;49.378;8.686;2024-03-02T12:16:58;3.45;;;3.15;;
25479;SDS011;13393;49.378;8.686;2024-03-02T12:19:28;3.85;;;3.40;;
25479;SDS011;13393;49.378;8.686;2024-03-02T12:21:55;4.40;;;3.35;;
25479;SDS011;13393;49.378;8.686;2024-03-02T12:24:22;4.10;;;3.22;;
25479;SDS011;13393;49.378;8.686;2024-03-02T12:26:49;3.05;;;2.75;;
25479;SDS011;13393;49.378;8.686;2024-03-02T12:29:17;3.05;;;2.67;;
25479;SDS011;13393;49.378;8.686;2024-03-02T12:31:44;2.70;;;2.50;;
25479;SDS011;13393;49.378;8.686;2024-03-02T12:34:11;3.95;;;3.00;;
25479;SDS011;13393;49.378;8.686;2024-03-02T12:36:40;3.42;;;2.63;;
25479;SDS011;13393;49.378;8.686;2024-03-02T12:39:07;3.50;;;2.45;;
25479;SDS011;13393;49.378;8.686;2024-03-02T12:41:36;4.18;;;2.90;;
25479;SDS011;13393;49.378;8.686;2024-03-02T12:44:02;3.30;;;3.00;;
25479;SDS011;13393;49.378;8.686;2024-03-02T12:46:29;3.53;;;3.00;;
25479;SDS011;13393;49.378;8.686;2024-03-02T12:48:56;4.53;;;4.05;;
25479;SDS011;13393;49.378;8.686;2024-03-02T12:51:22;4.15;;;3.75;;
25479;SDS011;13393;49.378;8.686;2024-03-02T12:53:54;3.53;;;3.22;;
25479;SDS011;13393;49.378;8.686;2024-03-02T12:56:20;3.22;;;2.92;;
25479;SDS011;13393;49.378;8.686;2024-03-02T12:58:52;2.78;;;2.55;;
25479;SDS011;13393;49.378;8.686;2024-03-02T13:01:19;2.55;;;2.33;;
25479;SDS011;13393;49.378;8.686;2024-03-02T13:03:47;3.80;;;3.10;;
25479;SDS011;13393;49.378;8.686;2024-03-02T13:06:14;2.92;;;2.63;;
25479;SDS011;13393;49.378;8.686;2024-03-02T13:08:40;3.10;;;2.80;;
25479;SDS011;13393;49.378;8.686;2024-03-02T13:11:08;4.15;;;3.58;;
25479;SDS011;13393;49.378;8.686;2024-03-02T13:13:36;4.90;;;3.13;;
25479;SDS011;13393;49.378;8.686;2024-03-02T13:16:02;2.95;;;2.65;;
25479;SDS011;13393;49.378;8.686;2024-03-02T13:18:29;2.25;;;2.03;;
25479;SDS011;13393;49.378;8.686;2024-03-02T13:20:56;3.03;;;2.75;;
25479;SDS011;13393;49.378;8.686;2024-03-02T13:23:22;3.55;;;3.25;;
25479;SDS011;13393;49.378;8.686;2024-03-02T13:25:49;3.28;;;2.97;;
25479;SDS011;13393;49.378;8.686;2024-03-02T13:28:18;4.03;;;2.92;;
25479;SDS011;13393;49.378;8.686;2024-03-02T13:30:45;3.90;;;3.50;;
25479;SDS011;13393;49.378;8.686;2024-03-02T13:33:11;2.60;;;2.40;;
25479;SDS011;13393;49.378;8.686;2024-03-02T13:35:36;2.58;;;2.38;;
25479;SDS011;13393;49.378;8.686;2024-03-02T13:38:03;4.80;;;3.80;;
25479;SDS011;13393;49.378;8.686;2024-03-02T13:40:30;3.45;;;2.92;;
25479;SDS011;13393;49.378;8.686;2024-03-02T13:43:00;2.80;;;2.60;;
25479;SDS011;13393;49.378;8.686;2024-03-02T13:45:28;5.68;;;3.50;;
25479;SDS011;13393;49.378;8.686;2024-03-02T13:47:55;3.63;;;3.22;;
25479;SDS011;13393;49.378;8.686;2024-03-02T13:50:21;3.17;;;2.88;;
25479;SDS011;13393;49.378;8.686;2024-03-02T13:52:48;8.93;;;6.53;;
25479;SDS011;13393;49.378;8.686;2024-03-02T13:55:14;4.55;;;2.83;;
25479;SDS011;13393;49.378;8.686;2024-03-02T13:57:41;3.40;;;3.08;;
25479;SDS011;13393;49.378;8.686;2024-03-02T14:00:08;3.15;;;2.72;;
25479;SDS011;13393;49.378;8.686;2024-03-02T14:02:38;5.55;;;4.35;;
25479;SDS011;13393;49.378;8.686;2024-03-02T14:05:05;3.92;;;3.45;;
25479;SDS011;13393;49.378;8.686;2024-03-02T14:07:33;3.50;;;2.60;;
25479;SDS011;13393;49.378;8.686;2024-03-02T14:10:00;4.78;;;3.35;;
25479;SDS011;13393;49.378;8.686;2024-03-02T14:12:27;2.30;;;2.08;;
25479;SDS011;13393;49.378;8.686;2024-03-02T14:14:53;2.75;;;2.45;;
25479;SDS011;13393;49.378;8.686;2024-03-02T14:17:23;3.40;;;2.88;;
25479;SDS011;13393;49.378;8.686;2024-03-02T14:19:51;2.60;;;2.40;;
25479;SDS011;13393;49.378;8.686;2024-03-02T14:22:18;2.70;;;2.50;;
25479;SDS011;13393;49.378;8.686;2024-03-02T14:24:45;3.08;;;2.75;;
25479;SDS011;13393;49.378;8.686;2024-03-02T14:27:12;2.33;;;2.13;;
25479;SDS011;13393;49.378;8.686;2024-03-02T14:29:39;2.75;;;2.40;;
25479;SDS011;13393;49.378;8.686;2024-03-02T14:32:15;2.65;;;2.45;;
25479;SDS011;13393;49.378;8.686;2024-03-02T14:34:42;2.33;;;2.10;;
25479;SDS011;13393;49.378;8.686;2024-03-02T14:37:13;2.10;;;1.90;;
25479;SDS011;13393;49.378;8.686;2024-03-02T14:39:39;1.67;;;1.58;;
25479;SDS011;13393;49.378;8.686;2024-03-02T14:42:06;2.00;;;1.80;;
25479;SDS011;13393;49.378;8.686;2024-03-02T14:44:33;2.00;;;1.80;;
25479;SDS011;13393;49.378;8.686;2024-03-02T14:47:00;2.60;;;2.40;;